createdAt,value
2019-05-18T00:02:10.997Z,25.40
2019-05-18T00:04:45.726Z,23.15
2019-05-18T00:07:20.454Z,23.85
2019-05-18T00:09:55.214Z,23.92
2019-05-18T00:12:30.014Z,29.10
2019-05-18T00:15:06.887Z,26.00
2019-05-18T00:17:41.671Z,24.35
2019-05-18T00:20:16.431Z,26.02
2019-05-18T00:22:51.167Z,25.25
2019-05-18T00:25:25.867Z,31.68
2019-05-18T00:28:00.669Z,27.70
2019-05-18T00:30:35.436Z,25.05
2019-05-18T00:33:10.157Z,26.62
2019-05-18T00:35:44.854Z,23.02
2019-05-18T00:38:19.649Z,23.95
2019-05-18T00:40:54.415Z,29.05
2019-05-18T00:43:29.214Z,43.75
2019-05-18T00:46:05.755Z,26.27
2019-05-18T00:48:40.556Z,28.75
2019-05-18T00:51:15.398Z,29.50
2019-05-18T00:53:50.150Z,28.25
2019-05-18T00:56:24.888Z,30.30
2019-05-18T00:58:59.685Z,29.87
2019-05-18T01:01:34.379Z,23.25
2019-05-18T01:04:09.104Z,30.10
2019-05-18T01:06:43.869Z,32.38
2019-05-18T01:09:18.674Z,34.65
2019-05-18T01:11:53.444Z,33.00
2019-05-18T01:14:28.172Z,32.13
2019-05-18T01:17:02.881Z,29.90
2019-05-18T01:19:37.672Z,28.83
2019-05-18T01:22:12.442Z,34.85
2019-05-18T01:24:47.325Z,30.80
2019-05-18T01:27:22.118Z,30.82
2019-05-18T01:29:56.845Z,29.57
2019-05-18T01:32:31.552Z,27.75
2019-05-18T01:35:08.121Z,27.48
2019-05-18T01:37:42.805Z,26.20
2019-05-18T01:40:17.706Z,31.55
2019-05-18T01:42:52.441Z,26.07
2019-05-18T01:45:27.222Z,28.80
2019-05-18T01:48:13.161Z,30.68
2019-05-18T01:50:39.262Z,30.08
2019-05-18T01:53:14.030Z,34.13
2019-05-18T01:55:48.829Z,32.00
2019-05-18T01:58:23.525Z,29.95
2019-05-18T02:00:58.338Z,28.83
2019-05-18T02:03:33.094Z,34.83
2019-05-18T02:06:07.900Z,33.35
2019-05-18T02:08:42.664Z,35.83
2019-05-18T02:11:17.325Z,36.85
2019-05-18T02:13:52.082Z,35.17
2019-05-18T02:16:26.820Z,36.63
2019-05-18T02:19:01.592Z,36.53
2019-05-18T02:21:36.398Z,33.67
2019-05-18T02:24:11.190Z,32.75
2019-05-18T02:26:45.987Z,29.07
2019-05-18T02:29:20.756Z,35.05
2019-05-18T02:31:55.484Z,33.23
2019-05-18T02:34:30.246Z,30.95
2019-05-18T02:37:05.058Z,31.20
2019-05-18T02:39:39.743Z,31.23
2019-05-18T02:42:14.542Z,35.20
2019-05-18T02:44:49.319Z,32.63
2019-05-18T02:47:24.124Z,29.98
2019-05-18T02:49:58.893Z,28.67
2019-05-18T02:52:33.695Z,32.83
2019-05-18T02:55:08.860Z,35.33
2019-05-18T02:57:43.662Z,33.45
2019-05-18T03:00:18.527Z,30.12
2019-05-18T03:02:53.388Z,30.25
2019-05-18T03:05:28.179Z,31.27
2019-05-18T03:08:03.010Z,29.35
2019-05-18T03:10:37.763Z,28.57
2019-05-18T03:13:12.566Z,31.10
2019-05-18T03:15:47.289Z,33.10
2019-05-18T03:18:22.055Z,35.98
2019-05-18T03:20:56.824Z,28.15
2019-05-18T03:23:31.666Z,32.80
2019-05-18T03:26:06.407Z,26.35
2019-05-18T03:28:41.214Z,29.82
2019-05-18T03:31:15.919Z,30.25
2019-05-18T03:33:50.651Z,29.20
2019-05-18T03:36:25.425Z,36.17
2019-05-18T03:39:00.150Z,49.93
2019-05-18T03:41:34.929Z,48.65
2019-05-18T03:44:09.663Z,60.90
2019-05-18T03:46:44.426Z,32.30
2019-05-18T03:49:27.054Z,29.48
2019-05-18T03:51:55.550Z,26.48
2019-05-18T03:54:30.608Z,27.58
2019-05-18T03:57:05.259Z,26.25
2019-05-18T03:59:39.962Z,38.33
2019-05-18T04:02:14.654Z,31.97
2019-05-18T04:04:49.390Z,34.13
2019-05-18T04:07:24.015Z,33.35
2019-05-18T04:09:58.816Z,31.95
2019-05-18T04:12:34.092Z,34.03
2019-05-18T04:15:09.866Z,33.58
2019-05-18T04:17:44.499Z,27.30
2019-05-18T04:20:19.306Z,30.27
2019-05-18T04:22:54.080Z,33.98
2019-05-18T04:25:28.882Z,36.20
2019-05-18T04:28:03.650Z,37.45
2019-05-18T04:30:38.316Z,31.70
2019-05-18T04:33:13.028Z,34.03
2019-05-18T04:35:47.749Z,36.38
2019-05-18T04:38:22.440Z,33.05
2019-05-18T04:40:57.240Z,34.88
2019-05-18T04:43:32.015Z,31.05
2019-05-18T04:46:06.810Z,33.35
2019-05-18T04:48:41.596Z,33.95
2019-05-18T04:51:16.330Z,28.12
2019-05-18T04:53:51.096Z,30.50
2019-05-18T04:56:25.833Z,30.62
2019-05-18T04:59:00.447Z,34.13
2019-05-18T05:01:35.214Z,29.63
2019-05-18T05:04:09.894Z,32.83
2019-05-18T05:06:44.631Z,32.65
2019-05-18T05:09:19.569Z,31.12
2019-05-18T05:11:54.295Z,29.80
2019-05-18T05:14:28.930Z,30.48
2019-05-18T05:17:03.668Z,34.40
2019-05-18T05:19:38.371Z,29.95
2019-05-18T05:22:13.166Z,31.00
2019-05-18T05:24:47.867Z,32.30
2019-05-18T05:27:22.687Z,32.70
2019-05-18T05:29:57.339Z,31.10
2019-05-18T05:32:31.964Z,23.90
2019-05-18T05:35:07.124Z,31.60
2019-05-18T05:37:42.027Z,28.70
2019-05-18T05:40:17.670Z,30.45
2019-05-18T05:42:52.429Z,28.73
2019-05-18T05:45:27.194Z,28.00
2019-05-18T05:48:01.973Z,31.80
2019-05-18T05:50:36.885Z,34.15
2019-05-18T05:53:11.748Z,18.57
2019-05-18T05:55:46.520Z,30.30
2019-05-18T05:58:21.245Z,28.52
2019-05-18T06:00:55.941Z,28.30
2019-05-18T06:03:30.671Z,24.27
2019-05-18T06:06:05.367Z,24.40
2019-05-18T06:08:40.197Z,24.75
2019-05-18T06:11:14.959Z,18.62
2019-05-18T06:13:49.621Z,19.52
2019-05-18T06:16:24.388Z,16.42
2019-05-18T06:18:59.123Z,20.80
2019-05-18T06:21:33.888Z,15.85
2019-05-18T06:24:08.690Z,20.30
2019-05-18T06:26:43.418Z,13.72
2019-05-18T06:29:18.208Z,14.45
2019-05-18T06:31:52.923Z,15.70
2019-05-18T06:34:27.643Z,13.10
2019-05-18T06:37:02.339Z,13.70
2019-05-18T06:39:37.269Z,12.60
2019-05-18T06:42:11.850Z,11.85
2019-05-18T06:44:46.655Z,11.33
2019-05-18T06:47:21.308Z,11.33
2019-05-18T06:49:56.003Z,10.35
2019-05-18T06:52:30.713Z,10.50
2019-05-18T06:55:06.718Z,10.08
2019-05-18T06:57:41.991Z,13.28
2019-05-18T07:00:16.879Z,10.40
2019-05-18T07:02:51.666Z,11.83
2019-05-18T07:05:26.394Z,10.60
2019-05-18T07:08:01.164Z,9.35
2019-05-18T07:10:35.868Z,10.82
2019-05-18T07:13:10.563Z,11.08
2019-05-18T07:15:45.349Z,9.00
2019-05-18T07:18:19.967Z,9.13
2019-05-18T07:20:54.618Z,8.73
2019-05-18T07:23:29.380Z,10.18
2019-05-18T07:26:04.173Z,9.95
2019-05-18T07:28:38.936Z,9.98
2019-05-18T07:31:13.662Z,9.48
2019-05-18T07:33:48.350Z,10.70
2019-05-18T07:36:23.140Z,10.55
2019-05-18T07:38:57.767Z,11.10
2019-05-18T07:41:45.895Z,10.00
2019-05-18T07:44:08.943Z,12.18
2019-05-18T07:46:43.743Z,11.97
2019-05-18T07:49:18.452Z,11.15
2019-05-18T07:51:58.783Z,11.88
2019-05-18T07:54:33.419Z,9.90
2019-05-18T07:57:08.223Z,11.48
2019-05-18T07:59:43.036Z,10.90
2019-05-18T08:02:17.653Z,10.93
2019-05-18T08:04:52.451Z,11.30
2019-05-18T08:07:27.259Z,11.83
2019-05-18T08:10:01.894Z,10.45
2019-05-18T08:12:36.671Z,10.10
2019-05-18T08:15:11.726Z,10.68
2019-05-18T08:17:46.386Z,10.43
2019-05-18T08:20:21.174Z,9.30
2019-05-18T08:22:55.966Z,10.20
2019-05-18T08:25:30.664Z,10.32
2019-05-18T08:28:05.474Z,9.93
2019-05-18T08:30:40.233Z,9.43
2019-05-18T08:33:15.052Z,9.95
2019-05-18T08:35:49.672Z,13.80
2019-05-18T08:38:24.371Z,11.00
2019-05-18T08:40:59.034Z,10.18
2019-05-18T08:43:33.834Z,10.15
2019-05-18T08:46:08.547Z,9.78
2019-05-18T08:48:43.302Z,10.18
2019-05-18T08:51:18.066Z,9.10
2019-05-18T08:53:52.892Z,10.20
2019-05-18T08:56:27.640Z,10.58
2019-05-18T08:59:02.808Z,10.23
2019-05-18T09:01:37.567Z,10.85
2019-05-18T09:04:12.364Z,11.25
2019-05-18T09:06:46.995Z,10.90
2019-05-18T09:09:21.642Z,10.45
2019-05-18T09:11:56.360Z,12.80
2019-05-18T09:14:31.126Z,11.18
2019-05-18T09:17:05.822Z,14.87
2019-05-18T09:19:40.614Z,9.80
2019-05-18T09:22:22.839Z,9.70
2019-05-18T09:24:51.787Z,9.50
2019-05-18T09:27:26.365Z,10.43
2019-05-18T09:30:01.115Z,9.48
2019-05-18T09:32:35.943Z,9.30
2019-05-18T09:35:11.301Z,9.98
2019-05-18T09:37:46.006Z,9.63
2019-05-18T09:40:20.810Z,9.98
2019-05-18T09:42:55.490Z,9.30
2019-05-18T09:45:30.794Z,8.70
2019-05-18T09:48:05.713Z,8.75
2019-05-18T09:50:40.586Z,8.93
2019-05-18T09:53:15.348Z,8.03
2019-05-18T09:55:50.176Z,8.55
2019-05-18T09:58:24.913Z,8.25
2019-05-18T10:00:59.704Z,7.53
2019-05-18T10:03:34.451Z,8.08
2019-05-18T10:06:09.272Z,9.08
2019-05-18T10:08:44.004Z,10.25
2019-05-18T10:11:18.800Z,8.83
2019-05-18T10:13:53.561Z,9.10
2019-05-18T10:16:28.358Z,8.68
2019-05-18T10:19:03.003Z,9.05
2019-05-18T10:21:37.833Z,9.08
2019-05-18T10:24:12.614Z,8.10
2019-05-18T10:26:47.327Z,7.58
2019-05-18T10:29:21.987Z,7.80
2019-05-18T10:31:56.714Z,7.08
2019-05-18T10:34:31.473Z,7.80
2019-05-18T10:37:06.259Z,7.83
2019-05-18T10:39:40.976Z,8.23
2019-05-18T10:42:15.911Z,12.43
2019-05-18T10:44:50.882Z,7.83
2019-05-18T10:47:25.608Z,9.48
2019-05-18T10:50:00.329Z,8.40
2019-05-18T10:52:35.029Z,8.98
2019-05-18T10:55:10.314Z,8.13
2019-05-18T10:57:45.084Z,7.50
2019-05-18T11:00:20.546Z,8.23
2019-05-18T11:02:55.232Z,8.55
2019-05-18T11:05:30.028Z,8.43
2019-05-18T11:08:04.818Z,8.00
2019-05-18T11:10:39.575Z,7.75
2019-05-18T11:13:17.119Z,11.43
2019-05-18T11:15:50.705Z,7.95
2019-05-18T11:18:25.463Z,7.50
2019-05-18T11:21:00.250Z,9.60
2019-05-18T11:23:43.174Z,6.20
2019-05-18T11:26:11.424Z,7.60
2019-05-18T11:28:46.123Z,7.78
2019-05-18T11:31:20.922Z,8.75
2019-05-18T11:33:55.638Z,9.18
2019-05-18T11:36:30.422Z,8.73
2019-05-18T11:39:06.793Z,6.62
2019-05-18T11:41:41.587Z,6.53
2019-05-18T11:44:16.359Z,8.18
2019-05-18T11:46:51.148Z,7.85
2019-05-18T11:49:28.960Z,7.72
2019-05-18T11:52:02.267Z,7.35
2019-05-18T11:54:37.017Z,7.37
2019-05-18T11:57:11.754Z,6.97
2019-05-18T11:59:46.510Z,6.58
2019-05-18T12:02:21.252Z,5.25
2019-05-18T12:04:55.939Z,5.42
2019-05-18T12:07:30.727Z,5.60
2019-05-18T12:10:08.782Z,5.50
2019-05-18T12:12:43.585Z,5.35
2019-05-18T12:15:20.242Z,5.53
2019-05-18T12:17:55.043Z,5.10
2019-05-18T12:20:29.804Z,5.70
2019-05-18T12:23:07.982Z,5.17
2019-05-18T12:25:40.988Z,6.45
2019-05-18T12:28:15.726Z,5.80
2019-05-18T12:30:50.467Z,5.65
2019-05-18T12:33:25.209Z,5.10
2019-05-18T12:35:59.965Z,5.35
2019-05-18T12:38:34.751Z,5.55
2019-05-18T12:41:10.575Z,5.70
2019-05-18T12:43:45.381Z,5.35
2019-05-18T12:46:19.998Z,4.75
2019-05-18T12:48:54.818Z,6.05
2019-05-18T12:51:29.562Z,5.28
2019-05-18T12:54:04.356Z,5.65
2019-05-18T12:56:39.113Z,4.90
2019-05-18T12:59:13.833Z,4.90
2019-05-18T13:01:48.592Z,5.30
2019-05-18T13:04:23.325Z,4.12
2019-05-18T13:06:58.107Z,12.18
2019-05-18T13:09:32.830Z,5.12
2019-05-18T13:12:07.595Z,5.72
2019-05-18T13:14:42.382Z,5.70
2019-05-18T13:17:17.072Z,5.78
2019-05-18T13:19:51.876Z,5.85
2019-05-18T13:22:26.634Z,5.55
2019-05-18T13:25:01.279Z,5.33
2019-05-18T13:27:39.518Z,5.12
2019-05-18T13:30:13.668Z,6.87
2019-05-18T13:32:48.324Z,5.60
2019-05-18T13:35:23.078Z,4.37
2019-05-18T13:37:57.785Z,4.40
2019-05-18T13:40:32.576Z,4.53
2019-05-18T13:43:07.342Z,4.70
2019-05-18T13:45:42.131Z,4.25
2019-05-18T13:48:16.802Z,4.70
2019-05-18T13:50:51.628Z,4.47
2019-05-18T13:53:26.307Z,4.58
2019-05-18T13:56:01.098Z,4.83
2019-05-18T13:58:35.792Z,4.62
2019-05-18T14:01:10.582Z,4.20
2019-05-18T14:03:45.355Z,4.17
2019-05-18T14:06:20.179Z,5.10
2019-05-18T14:08:54.927Z,4.20
2019-05-18T14:11:29.723Z,4.60
2019-05-18T14:14:04.800Z,5.08
2019-05-18T14:16:39.447Z,5.22
2019-05-18T14:19:14.205Z,7.47
2019-05-18T14:21:48.854Z,4.42
2019-05-18T14:24:23.615Z,4.50
2019-05-18T14:26:58.434Z,4.70
2019-05-18T14:29:33.059Z,4.65
2019-05-18T14:32:10.856Z,5.17
2019-05-18T14:34:44.247Z,4.97
2019-05-18T14:37:19.403Z,7.08
2019-05-18T14:39:54.087Z,5.85
2019-05-18T14:42:28.911Z,5.12
2019-05-18T14:45:05.657Z,5.42
2019-05-18T14:47:40.321Z,5.97
2019-05-18T14:50:16.079Z,6.00
2019-05-18T14:52:50.866Z,6.28
2019-05-18T14:55:33.359Z,4.62
2019-05-18T14:58:02.085Z,5.53
2019-05-18T15:00:38.479Z,5.05
2019-05-18T15:03:13.239Z,5.08
2019-05-18T15:05:47.978Z,4.70
2019-05-18T15:08:22.999Z,4.83
2019-05-18T15:10:57.672Z,4.58
2019-05-18T15:13:32.463Z,4.80
2019-05-18T15:16:07.249Z,8.50
2019-05-18T15:18:41.981Z,4.30
2019-05-18T15:21:16.767Z,4.75
2019-05-18T15:23:51.527Z,4.67
2019-05-18T15:26:26.280Z,4.78
2019-05-18T15:29:01.073Z,4.50
2019-05-18T15:31:35.757Z,4.70
2019-05-18T15:34:10.559Z,6.40
2019-05-18T15:36:45.332Z,4.45
2019-05-18T15:39:20.154Z,5.60
2019-05-18T15:41:54.842Z,4.45
2019-05-18T15:44:29.635Z,6.25
2019-05-18T15:47:05.336Z,6.87
2019-05-18T15:49:40.137Z,4.45
2019-05-18T15:52:14.844Z,5.08
2019-05-18T15:54:49.636Z,5.08
2019-05-18T15:57:24.325Z,5.47
2019-05-18T15:59:58.981Z,5.15
2019-05-18T16:02:33.747Z,5.42
2019-05-18T16:05:09.244Z,5.05
2019-05-18T16:07:43.997Z,5.33
2019-05-18T16:10:23.142Z,4.97
2019-05-18T16:12:57.999Z,6.42
2019-05-18T16:15:33.546Z,5.03
2019-05-18T16:18:08.328Z,10.28
2019-05-18T16:20:44.625Z,6.62
2019-05-18T16:23:19.408Z,4.97
2019-05-18T16:25:54.202Z,6.65
2019-05-18T16:28:28.955Z,5.03
2019-05-18T16:31:03.757Z,6.10
2019-05-18T16:33:41.267Z,6.03
2019-05-18T16:36:15.974Z,5.17
2019-05-18T16:38:50.594Z,5.30
2019-05-18T16:41:25.461Z,4.90
2019-05-18T16:44:00.149Z,5.08
2019-05-18T16:46:34.978Z,5.20
2019-05-18T16:49:09.732Z,5.92
2019-05-18T16:51:44.449Z,5.30
2019-05-18T16:54:19.189Z,5.62
2019-05-18T16:56:53.918Z,5.22
2019-05-18T16:59:28.580Z,5.60
2019-05-18T17:02:03.348Z,5.78
2019-05-18T17:04:38.124Z,16.42
2019-05-18T17:07:12.918Z,9.03
2019-05-18T17:09:47.693Z,5.00
2019-05-18T17:12:22.351Z,5.67
2019-05-18T17:14:57.153Z,6.10
2019-05-18T17:17:35.122Z,5.75
2019-05-18T17:20:08.921Z,5.45
2019-05-18T17:22:43.766Z,7.10
2019-05-18T17:25:18.568Z,7.08
2019-05-18T17:27:53.291Z,5.87
2019-05-18T17:30:28.053Z,5.47
2019-05-18T17:33:02.844Z,5.78
2019-05-18T17:35:37.605Z,7.65
2019-05-18T17:38:12.406Z,6.00
2019-05-18T17:40:47.163Z,7.10
2019-05-18T17:43:21.919Z,6.10
2019-05-18T17:45:56.884Z,5.90
2019-05-18T17:48:31.687Z,6.83
2019-05-18T17:51:06.388Z,7.70
2019-05-18T17:53:41.142Z,8.45
2019-05-18T17:56:15.902Z,8.78
2019-05-18T17:58:50.643Z,9.05
2019-05-18T18:01:25.383Z,9.65
2019-05-18T18:04:00.103Z,9.68
2019-05-18T18:06:34.811Z,14.78
2019-05-18T18:09:09.615Z,14.35
2019-05-18T18:11:44.379Z,14.05
2019-05-18T18:14:19.119Z,12.63
2019-05-18T18:16:53.820Z,12.15
2019-05-18T18:19:28.556Z,10.18
2019-05-18T18:22:03.280Z,9.75
2019-05-18T18:24:38.130Z,9.38
2019-05-18T18:27:24.677Z,9.90
2019-05-18T18:29:49.163Z,8.10
2019-05-18T18:32:23.775Z,9.50
2019-05-18T18:34:58.389Z,9.13
2019-05-18T18:37:33.039Z,8.90
2019-05-18T18:40:08.130Z,9.98
2019-05-18T18:42:42.969Z,8.65
2019-05-18T18:45:18.362Z,7.50
2019-05-18T18:48:12.323Z,8.20
2019-05-18T18:50:47.127Z,9.10
2019-05-18T18:53:21.888Z,8.68
2019-05-18T18:55:56.614Z,7.62
2019-05-18T18:58:31.303Z,8.50
2019-05-18T19:01:06.116Z,8.23
2019-05-18T19:03:40.808Z,13.90
2019-05-18T19:06:15.645Z,16.52
2019-05-18T19:08:50.395Z,17.80
2019-05-18T19:11:25.203Z,15.50
2019-05-18T19:13:59.984Z,15.25
2019-05-18T19:16:34.727Z,12.00
2019-05-18T19:19:09.488Z,12.13
2019-05-18T19:21:44.281Z,11.68
2019-05-18T19:24:19.026Z,11.35
2019-05-18T19:26:53.835Z,11.60
2019-05-18T19:29:28.523Z,12.35
2019-05-18T19:32:03.342Z,19.65
2019-05-18T19:34:38.104Z,21.77
2019-05-18T19:37:12.908Z,16.67
2019-05-18T19:39:47.672Z,14.87
2019-05-18T19:42:22.405Z,11.12
2019-05-18T19:44:57.107Z,11.15
2019-05-18T19:47:31.826Z,11.10
2019-05-18T19:50:09.650Z,11.25
2019-05-18T19:52:44.312Z,12.95
2019-05-18T19:55:19.083Z,12.78
2019-05-18T19:57:53.889Z,13.10
2019-05-18T20:00:28.652Z,12.63
2019-05-18T20:03:03.412Z,14.95
2019-05-18T20:05:38.142Z,14.63
2019-05-18T20:08:12.957Z,13.62
2019-05-18T20:10:47.727Z,17.98
2019-05-18T20:13:22.415Z,19.60
2019-05-18T20:15:57.067Z,15.48
2019-05-18T20:18:31.872Z,15.08
2019-05-18T20:21:06.567Z,15.18
2019-05-18T20:23:41.381Z,13.13
2019-05-18T20:26:16.076Z,11.25
2019-05-18T20:28:50.809Z,13.83
2019-05-18T20:31:25.570Z,14.13
2019-05-18T20:34:00.377Z,13.90
2019-05-18T20:36:35.076Z,11.70
2019-05-18T20:39:09.831Z,10.75
2019-05-18T20:41:44.450Z,11.93
2019-05-18T20:44:19.171Z,11.88
2019-05-18T20:46:53.798Z,12.13
2019-05-18T20:49:28.605Z,13.03
2019-05-18T20:52:03.372Z,15.03
2019-05-18T20:54:38.137Z,14.50
2019-05-18T20:57:12.827Z,15.53
2019-05-18T20:59:47.560Z,16.35
2019-05-18T21:02:22.175Z,18.98
2019-05-18T21:04:56.843Z,17.15
2019-05-18T21:07:31.622Z,21.50
2019-05-18T21:10:07.432Z,26.00
2019-05-18T21:12:42.127Z,28.47
2019-05-18T21:15:17.059Z,31.25
2019-05-18T21:17:51.820Z,19.17
2019-05-18T21:20:26.622Z,13.98
2019-05-18T21:23:01.389Z,16.27
2019-05-18T21:25:36.191Z,15.28
2019-05-18T21:28:11.007Z,14.75
2019-05-18T21:30:45.774Z,13.78
2019-05-18T21:33:20.451Z,13.22
2019-05-18T21:35:55.178Z,14.28
2019-05-18T21:38:29.959Z,11.65
2019-05-18T21:41:04.715Z,11.83
2019-05-18T21:43:39.482Z,11.50
2019-05-18T21:46:14.203Z,13.15
2019-05-18T21:48:48.897Z,13.58
2019-05-18T21:51:23.558Z,14.05
2019-05-18T21:53:58.179Z,16.27
2019-05-18T21:56:32.859Z,13.80
2019-05-18T21:59:11.759Z,13.28
2019-05-18T22:01:44.132Z,21.40
2019-05-18T22:04:18.894Z,20.77
2019-05-18T22:06:53.698Z,25.17
2019-05-18T22:09:28.500Z,18.75
2019-05-18T22:12:03.352Z,20.75
2019-05-18T22:14:38.056Z,20.23
2019-05-18T22:17:12.787Z,17.90
2019-05-18T22:19:47.550Z,18.42
2019-05-18T22:22:22.220Z,18.25
2019-05-18T22:24:56.848Z,18.77
2019-05-18T22:27:31.519Z,20.02
2019-05-18T22:30:06.586Z,23.92
2019-05-18T22:32:41.378Z,23.62
2019-05-18T22:35:16.146Z,22.55
2019-05-18T22:37:50.944Z,24.10
2019-05-18T22:40:25.642Z,17.20
2019-05-18T22:43:00.451Z,15.80
2019-05-18T22:45:35.219Z,16.02
2019-05-18T22:48:10.023Z,15.55
2019-05-18T22:50:44.791Z,16.15
2019-05-18T22:53:19.518Z,15.95
2019-05-18T22:55:54.234Z,15.30
2019-05-18T22:58:28.966Z,18.12
2019-05-18T23:01:03.719Z,21.42
2019-05-18T23:03:38.461Z,18.62
2019-05-18T23:06:13.157Z,18.80
2019-05-18T23:08:47.886Z,17.15
2019-05-18T23:11:22.582Z,15.93
2019-05-18T23:13:57.387Z,14.93
2019-05-18T23:16:32.087Z,17.85
2019-05-18T23:19:06.891Z,18.87
2019-05-18T23:21:41.589Z,17.57
2019-05-18T23:24:16.463Z,16.50
2019-05-18T23:26:51.219Z,16.07
2019-05-18T23:29:26.031Z,15.35
2019-05-18T23:32:00.670Z,16.27
2019-05-18T23:34:35.297Z,15.10
2019-05-18T23:37:10.066Z,14.03
2019-05-18T23:39:44.878Z,13.72
2019-05-18T23:42:19.578Z,12.55
2019-05-18T23:44:54.312Z,13.75
2019-05-18T23:47:29.008Z,12.98
2019-05-18T23:50:03.842Z,13.50
2019-05-18T23:52:38.606Z,11.95
2019-05-18T23:55:13.472Z,12.63
2019-05-18T23:57:48.175Z,13.03
